Elba, Minnesota
Current Conditions -  °F | °C
As of 6:34 PM on Sunday 21 Dec 2014 (Local Time) from KONA Reporting Station
Overcast Overcast  
Wind Chill: 32°   Ceiling: 1200
Heat Index: 39°   Visibility: 10mi
Dew Point: 36°   Wind: 12mph
Humidity: 87%   Direction: 210°SSW
Pressure: 29.82"   Gusts: NA
Location:  44.1503°N, 91.9879°W
Report Text: KONA 220034Z AUTO 21010KT 10SM OVC012 04/02 A2982 RMK AO2
Loading
Personal Weather Stations






























Interactive Weather Map New forecast layout! Learn more

10-Day Weather Forecast

Advertisements
Track Severe Weather on mobile